Time;durP1;ratioP1;P1;durP2;ratioP2;P2;SDS_P1;SDS_P2;PMS_P1;PMS_P2;Temp;Humidity;BMP_temperature;BMP_pressure;BME280_temperature;BME280_humidity;BME280_pressure;Samples;Min_cycle;Max_cycle;Signal;HPM_P1;HPM_P2
2022/01/24 00:01:08;;;;;;;20.40;10.02;;;;;;;-7.40;100.00;91174.53;5031139;28;20123;-67
2022/01/24 00:03:34;;;;;;;22.02;9.18;;;;;;;-7.38;100.00;91180.31;5031143;28;20065;-67
2022/01/24 00:05:59;;;;;;;19.17;9.05;;;;;;;-7.42;100.00;91169.53;5030712;28;20049;-67
2022/01/24 00:08:25;;;;;;;16.15;8.52;;;;;;;-7.36;100.00;91183.47;5030985;28;20474;-66
2022/01/24 00:10:52;;;;;;;13.02;8.00;;;;;;;-7.35;100.00;91174.72;5030979;28;20033;-67
2022/01/24 00:26:50;;;;;;;15.82;8.07;;;;;;;-7.47;100.00;91163.38;5034287;28;20415;-67
2022/01/24 00:29:18;;;;;;;17.23;8.85;;;;;;;-7.47;100.00;91168.53;5034883;28;20025;-67
2022/01/24 00:31:44;;;;;;;18.02;10.25;;;;;;;-7.59;100.00;91163.94;5034722;28;20033;-69
2022/01/24 00:34:10;;;;;;;14.13;8.27;;;;;;;-7.76;100.00;91170.44;5034782;28;20136;-68
2022/01/24 00:36:37;;;;;;;15.32;7.78;;;;;;;-7.89;100.00;91168.63;5034700;28;20052;-67
2022/01/24 00:39:04;;;;;;;12.38;7.13;;;;;;;-8.00;100.00;91174.34;5034591;28;20475;-67
2022/01/24 00:41:35;;;;;;;12.40;6.80;;;;;;;-8.10;100.00;91168.72;5034689;28;20037;-67
2022/01/24 00:46:53;;;;;;;14.25;7.75;;;;;;;-8.21;100.00;91170.06;5034459;28;20092;-66
2022/01/24 00:57:03;;;;;;;29.10;12.13;;;;;;;-8.66;100.00;91161.13;5034257;28;20021;-67
2022/01/24 00:59:29;;;;;;;23.30;11.70;;;;;;;-8.79;100.00;91161.84;5034237;28;20035;-66
2022/01/24 01:01:55;;;;;;;20.23;10.40;;;;;;;-8.86;100.00;91163.56;5034059;28;20103;-69
2022/01/24 01:04:25;;;;;;;20.52;11.00;;;;;;;-8.74;100.00;91175.94;5034228;28;20486;-67
2022/01/24 01:06:51;;;;;;;26.33;12.35;;;;;;;-8.66;100.00;91176.59;5034059;28;20068;-66
2022/01/24 01:20:29;;;;;;;22.52;10.68;;;;;;;-8.67;100.00;91179.38;5034252;28;20036;-66
2022/01/24 01:22:55;;;;;;;21.50;9.82;;;;;;;-8.69;100.00;91176.16;5033928;28;20058;-67
2022/01/24 01:25:21;;;;;;;22.15;11.05;;;;;;;-8.60;100.00;91181.00;5033754;28;20479;-67
2022/01/24 01:27:49;;;;;;;24.80;11.80;;;;;;;-8.33;100.00;91181.13;5033772;28;20083;-67
2022/01/24 01:30:19;;;;;;;25.65;11.95;;;;;;;-8.33;100.00;91181.94;5034113;28;20029;-68
2022/01/24 01:32:59;;;;;;;31.88;12.15;;;;;;;-8.08;100.00;91176.28;5033721;28;20407;-66
2022/01/24 01:54:21;;;;;;;15.65;8.95;;;;;;;-7.86;100.00;91170.03;5033192;28;20103;-66
2022/01/24 01:56:46;;;;;;;17.08;9.40;;;;;;;-7.78;100.00;91172.44;5033071;28;20567;-66
2022/01/24 01:59:12;;;;;;;18.50;8.82;;;;;;;-7.76;100.00;91175.59;5033177;28;20033;-68
2022/01/24 02:01:37;;;;;;;18.75;9.30;;;;;;;-7.76;100.00;91175.59;5033251;28;20057;-66
2022/01/24 02:04:05;;;;;;;18.85;9.05;;;;;;;-7.86;100.00;91182.94;5032947;28;20493;-68
2022/01/24 02:06:31;;;;;;;22.73;9.77;;;;;;;-7.91;100.00;91174.97;5033040;28;20038;-66
2022/01/24 02:09:09;;;;;;;21.48;9.85;;;;;;;-7.86;100.00;91177.78;5033024;28;20029;-67
2022/01/24 02:11:35;;;;;;;24.83;10.88;;;;;;;-7.78;100.00;91169.84;5033303;28;20033;-67
2022/01/24 02:14:08;;;;;;;27.38;11.43;;;;;;;-7.74;100.00;91173.63;5032729;28;20558;-69
2022/01/24 02:19:23;;;;;;;20.95;11.07;;;;;;;-7.59;100.00;91176.06;5033067;28;20037;-68
2022/01/24 02:24:24;;;;;;;27.73;14.40;;;;;;;-7.77;100.00;91184.34;5033004;28;20091;-68
2022/01/24 02:26:54;;;;;;;28.15;14.32;;;;;;;-7.87;100.00;91186.50;5032581;28;20032;-67
2022/01/24 02:29:42;;;;;;;41.20;16.58;;;;;;;-7.78;100.00;91195.66;5032640;28;20029;-67
2022/01/24 02:32:06;;;;;;;35.10;15.18;;;;;;;-7.83;100.00;91198.03;5032194;28;20037;-68
2022/01/24 02:34:39;;;;;;;31.95;14.60;;;;;;;-7.84;100.00;91201.63;5032515;28;20036;-68
2022/01/24 02:37:09;;;;;;;27.65;13.52;;;;;;;-7.79;100.00;91204.41;5032456;28;20072;-68
2022/01/24 02:39:54;;;;;;;27.73;14.38;;;;;;;-7.70;100.00;91199.88;5032380;28;20480;-67
2022/01/24 02:53:12;;;;;;;22.75;11.52;;;;;;;-7.84;100.00;91199.03;5032181;28;20048;-67
2022/01/24 02:55:39;;;;;;;19.75;10.77;;;;;;;-7.80;100.00;91213.16;5032097;28;20478;-68
2022/01/24 02:58:05;;;;;;;25.27;12.18;;;;;;;-7.81;100.00;91223.66;5031909;28;20029;-69
2022/01/24 03:00:32;;;;;;;23.35;11.55;;;;;;;-7.85;100.00;91205.97;5032101;28;20079;-67
2022/01/24 03:02:57;;;;;;;19.52;10.07;;;;;;;-7.95;100.00;91210.69;5032024;28;20021;-68
2022/01/24 03:05:23;;;;;;;22.92;12.38;;;;;;;-8.06;100.00;91207.84;5031915;28;20172;-66
2022/01/24 03:07:48;;;;;;;21.60;11.45;;;;;;;-8.19;100.00;91213.78;5031743;28;20030;-70
2022/01/24 03:10:24;;;;;;;19.98;10.55;;;;;;;-8.39;100.00;91221.41;5031827;28;20644;-67
2022/01/24 03:13:09;;;;;;;18.92;10.20;;;;;;;-8.55;100.00;91224.25;5031851;28;20434;-68
2022/01/24 03:15:34;;;;;;;24.10;11.05;;;;;;;-8.79;100.00;91222.91;5031716;28;20161;-66
2022/01/24 03:18:00;;;;;;;22.40;11.82;;;;;;;-9.02;100.00;91222.31;5031546;28;20116;-67
2022/01/24 03:20:25;;;;;;;20.98;10.50;;;;;;;-8.96;100.00;91224.97;5031689;28;20033;-66
2022/01/24 03:22:51;;;;;;;17.20;9.75;;;;;;;-8.92;100.00;91233.91;5031610;28;20025;-67
2022/01/24 03:25:16;;;;;;;18.67;9.48;;;;;;;-9.02;100.00;91223.13;5031537;28;20490;-68
2022/01/24 03:27:42;;;;;;;21.77;10.05;;;;;;;-9.02;100.00;91222.31;5031591;28;20052;-69
2022/01/24 03:30:07;;;;;;;15.95;8.30;;;;;;;-9.25;100.00;91225.91;5031304;28;20030;-69
2022/01/24 03:32:33;;;;;;;12.63;7.18;;;;;;;-9.33;100.00;91231.16;5031401;28;20029;-67
2022/01/24 03:34:58;;;;;;;21.30;8.50;;;;;;;-9.23;100.00;91236.81;5031296;28;20072;-69
2022/01/24 03:37:24;;;;;;;17.05;8.48;;;;;;;-9.25;100.00;91232.81;5031382;28;20033;-68
2022/01/24 03:39:49;;;;;;;21.00;10.35;;;;;;;-9.08;100.00;91239.31;5031334;28;20147;-70
2022/01/24 03:42:15;;;;;;;23.77;11.40;;;;;;;-8.99;100.00;91230.50;5031310;28;20068;-67
2022/01/24 03:44:44;;;;;;;24.05;11.38;;;;;;;-8.80;100.00;91247.91;5031228;28;20128;-67
2022/01/24 03:47:30;;;;;;;20.80;11.25;;;;;;;-8.65;100.00;91259.91;5031293;28;20025;-67
2022/01/24 03:49:57;;;;;;;23.08;11.07;;;;;;;-8.52;100.00;91250.50;5030827;28;20120;-68
2022/01/24 03:52:23;;;;;;;24.25;11.85;;;;;;;-8.44;100.00;91254.72;5031198;28;20029;-67
2022/01/24 03:54:49;;;;;;;23.67;10.77;;;;;;;-8.43;100.00;91255.50;5031031;28;20086;-67
2022/01/24 03:57:18;;;;;;;25.25;13.13;;;;;;;-8.66;100.00;91260.91;5031147;28;20138;-67
2022/01/24 03:59:43;;;;;;;27.02;11.35;;;;;;;-8.82;100.00;91264.53;5030718;28;20021;-70
2022/01/24 04:02:10;;;;;;;25.13;11.40;;;;;;;-8.87;100.00;91251.41;5030940;28;20040;-69
2022/01/24 04:04:36;;;;;;;24.27;11.43;;;;;;;-8.81;100.00;91264.34;5031033;28;20076;-67
2022/01/24 04:07:02;;;;;;;15.10;9.02;;;;;;;-8.87;100.00;91264.28;5031103;28;20487;-67
2022/01/24 04:09:27;;;;;;;18.63;9.43;;;;;;;-8.78;100.00;91274.28;5030973;28;20514;-67
2022/01/24 04:11:56;;;;;;;22.08;10.02;;;;;;;-8.80;100.00;91268.53;5030700;28;20025;-67
2022/01/24 04:17:20;;;;;;;24.00;11.43;;;;;;;-8.82;100.00;91267.13;5031197;28;20044;-68
2022/01/24 04:22:37;;;;;;;31.38;14.18;;;;;;;-8.71;100.00;91276.13;5031079;28;20083;-67
2022/01/24 04:25:05;;;;;;;33.17;14.43;;;;;;;-8.83;100.00;91283.56;5029667;28;20385;-67
2022/01/24 04:27:31;;;;;;;26.75;13.98;;;;;;;-8.90;100.00;91285.28;5030815;28;20025;-68
2022/01/24 04:29:57;;;;;;;17.60;9.40;;;;;;;-8.88;100.00;91285.88;5030615;28;20104;-69
2022/01/24 04:32:23;;;;;;;123.45;38.65;;;;;;;-8.95;100.00;91285.84;5030659;28;20029;-67
2022/01/24 04:34:49;;;;;;;80.40;33.97;;;;;;;-8.84;100.00;91284.53;5030662;28;20045;-69
2022/01/24 04:37:16;;;;;;;21.08;9.43;;;;;;;-8.66;100.00;91279.75;5029515;28;20494;-67
2022/01/24 04:39:43;;;;;;;35.35;17.38;;;;;;;-8.53;100.00;91295.31;5030693;28;20029;-68
2022/01/24 04:42:14;;;;;;;34.85;15.43;;;;;;;-8.43;100.00;91307.09;5030556;28;20029;-67
2022/01/24 04:45:07;;;;;;;36.85;16.00;;;;;;;-8.49;100.00;91295.75;5030553;28;20126;-69
2022/01/24 04:47:48;;;;;;;29.77;14.20;;;;;;;-8.74;100.00;91323.69;5030923;28;20461;-67
2022/01/24 04:50:42;;;;;;;21.02;8.45;;;;;;;-8.84;100.00;91318.84;5030449;28;20523;-69
2022/01/24 04:53:29;;;;;;;33.90;14.85;;;;;;;-8.82;100.00;91310.94;5030607;28;20057;-68
2022/01/24 04:55:53;;;;;;;21.38;10.15;;;;;;;-8.56;100.00;91325.84;5029978;28;20045;-69
2022/01/24 04:58:18;;;;;;;20.00;9.70;;;;;;;-8.43;100.00;91325.94;5030498;28;20497;-67
2022/01/24 05:00:43;;;;;;;20.88;9.90;;;;;;;-8.32;100.00;91324.63;5030512;28;20038;-67
2022/01/24 05:03:09;;;;;;;20.67;10.35;;;;;;;-8.40;100.00;91328.16;5030476;28;20036;-68
2022/01/24 05:05:35;;;;;;;20.10;11.07;;;;;;;-8.43;100.00;91327.72;5030703;28;20057;-67
2022/01/24 05:08:04;;;;;;;31.45;12.68;;;;;;;-8.38;100.00;91331.34;5030235;28;20414;-67
2022/01/24 05:10:37;;;;;;;26.73;14.65;;;;;;;-8.30;100.00;91335.56;5030470;28;20057;-67
2022/01/24 05:23:55;;;;;;;33.53;15.93;;;;;;;-8.34;100.00;91355.00;5033707;28;20034;-69
2022/01/24 05:26:21;;;;;;;31.67;14.90;;;;;;;-8.26;100.00;91352.25;5033724;28;20039;-67
2022/01/24 05:28:46;;;;;;;28.48;14.15;;;;;;;-8.41;100.00;91354.13;5033829;28;20017;-66
2022/01/24 05:31:11;;;;;;;39.83;16.85;;;;;;;-8.55;100.00;91355.81;5033623;28;20481;-68
2022/01/24 05:33:37;;;;;;;31.50;15.65;;;;;;;-8.57;100.00;91362.94;5033652;28;20025;-66
2022/01/24 05:36:03;;;;;;;31.13;16.80;;;;;;;-8.52;100.00;91363.16;5033365;28;20036;-66
2022/01/24 05:38:28;;;;;;;33.85;15.10;;;;;;;-8.49;100.00;91366.19;5033382;28;20033;-69
2022/01/24 05:40:54;;;;;;;23.20;12.57;;;;;;;-8.49;100.00;91367.97;5033483;28;20064;-66
2022/01/24 05:43:20;;;;;;;33.25;15.70;;;;;;;-8.37;100.00;91376.00;5033795;28;20415;-68
2022/01/24 05:45:45;;;;;;;26.95;14.27;;;;;;;-8.38;100.00;91380.34;5033308;28;20059;-69
2022/01/24 05:48:11;;;;;;;25.17;13.10;;;;;;;-8.47;100.00;91378.91;5033249;28;20554;-67
2022/01/24 05:50:36;;;;;;;29.42;15.80;;;;;;;-8.54;100.00;91380.59;5033367;28;20106;-68
2022/01/24 05:53:02;;;;;;;33.03;16.08;;;;;;;-8.65;100.00;91381.13;5033217;28;20033;-69
2022/01/24 05:55:27;;;;;;;29.05;14.38;;;;;;;-8.73;100.00;91384.59;5033015;28;20025;-66
2022/01/24 05:57:53;;;;;;;42.45;22.38;;;;;;;-8.64;100.00;91390.44;5032909;28;20029;-67
2022/01/24 06:00:20;;;;;;;35.63;18.00;;;;;;;-8.65;100.00;91399.16;5033129;28;20392;-68
2022/01/24 06:02:46;;;;;;;34.70;17.33;;;;;;;-8.61;100.00;91395.22;5033195;28;20033;-68
2022/01/24 06:05:11;;;;;;;37.90;17.38;;;;;;;-8.59;100.00;91399.22;5033034;28;20408;-66
2022/01/24 06:07:37;;;;;;;30.67;15.35;;;;;;;-8.60;100.00;91407.94;5033088;28;20061;-66
2022/01/24 06:10:04;;;;;;;39.40;20.13;;;;;;;-8.51;100.00;91411.22;5032815;28;20030;-67
2022/01/24 06:12:30;;;;;;;52.53;23.58;;;;;;;-8.60;100.00;91415.69;5032971;28;20099;-66
2022/01/24 06:14:55;;;;;;;65.95;31.13;;;;;;;-8.55;100.00;91415.13;5032771;28;20037;-67
2022/01/24 06:17:21;;;;;;;58.55;26.85;;;;;;;-8.51;100.00;91412.00;5032826;28;20026;-68
2022/01/24 06:19:46;;;;;;;76.03;30.73;;;;;;;-8.31;100.00;91434.59;5032548;28;20030;-66
2022/01/24 06:22:12;;;;;;;64.45;26.90;;;;;;;-8.38;100.00;91434.53;5032726;28;20621;-67
2022/01/24 06:24:38;;;;;;;60.08;27.50;;;;;;;-8.42;100.00;91432.50;5032718;28;20550;-66
2022/01/24 06:27:03;;;;;;;64.78;30.40;;;;;;;-8.42;100.00;91440.25;5032697;28;20172;-66
2022/01/24 06:29:29;;;;;;;36.22;16.95;;;;;;;-8.40;100.00;91440.88;5032653;28;20400;-71
2022/01/24 06:31:55;;;;;;;43.05;21.20;;;;;;;-8.29;100.00;91435.19;5037116;28;20044;-68
2022/01/24 06:34:20;;;;;;;46.72;22.27;;;;;;;-8.23;100.00;91440.41;5042720;28;20478;-70
2022/01/24 06:36:46;;;;;;;58.08;24.48;;;;;;;-8.28;100.00;91447.91;5041069;28;20127;-69
2022/01/24 06:39:14;;;;;;;46.53;21.85;;;;;;;-8.28;100.00;91453.06;5041741;28;20020;-71
2022/01/24 06:41:41;;;;;;;40.17;18.13;;;;;;;-8.18;100.00;91456.16;5042692;28;20029;-72
2022/01/24 06:44:07;;;;;;;35.20;18.08;;;;;;;-8.16;100.00;91450.81;5048537;28;20489;-70
2022/01/24 06:46:32;;;;;;;42.70;20.00;;;;;;;-8.33;100.00;91452.84;5044396;28;20100;-69
2022/01/24 06:48:58;;;;;;;42.53;20.83;;;;;;;-8.25;100.00;91459.63;5041875;28;20041;-71
2022/01/24 06:51:23;;;;;;;50.55;22.27;;;;;;;-8.07;100.00;91454.03;5040423;28;20025;-69
2022/01/24 06:53:49;;;;;;;55.75;25.30;;;;;;;-8.09;100.00;91459.41;5041927;28;20427;-72
2022/01/24 06:56:15;;;;;;;44.38;21.63;;;;;;;-8.21;100.00;91450.53;5040192;28;20033;-71
2022/01/24 06:58:41;;;;;;;46.97;21.88;;;;;;;-7.93;100.00;91456.56;5033987;28;20022;-68
2022/01/24 07:01:07;;;;;;;38.05;19.52;;;;;;;-7.79;100.00;91470.38;5046834;28;20449;-69
2022/01/24 07:03:33;;;;;;;52.17;26.02;;;;;;;-7.73;100.00;91467.06;5036902;28;20104;-68
2022/01/24 07:05:59;;;;;;;47.70;23.13;;;;;;;-7.61;100.00;91470.72;5035082;28;20450;-71
2022/01/24 07:08:25;;;;;;;42.97;21.48;;;;;;;-7.75;100.00;91473.38;5035104;28;20031;-71
2022/01/24 07:10:51;;;;;;;48.65;25.27;;;;;;;-7.69;100.00;91462.31;5035630;28;20031;-70
2022/01/24 07:13:19;;;;;;;33.58;15.30;;;;;;;-7.22;100.00;91456.50;5035208;28;20045;-69
2022/01/24 07:15:49;;;;;;;45.25;20.83;;;;;;;-7.08;100.00;91473.69;5037183;28;20090;-73
2022/01/24 07:19:03;;;;;;;39.70;19.33;;;;;;;-6.84;100.00;91476.78;5042498;28;20033;-69
2022/01/24 07:21:06;;;;;;;32.55;15.68;;;;;;;-6.86;98.24;91476.97;5029749;28;20041;-70
2022/01/24 07:23:33;;;;;;;25.58;12.90;;;;;;;-6.88;98.14;91481.53;5040338;28;20022;-72
2022/01/24 07:25:58;;;;;;;29.08;13.13;;;;;;;-6.83;97.81;91493.88;5039390;28;20411;-70
2022/01/24 07:28:24;;;;;;;40.30;20.48;;;;;;;-7.13;96.86;91488.94;5028176;28;20033;-69
2022/01/24 07:30:49;;;;;;;36.20;16.60;;;;;;;-6.90;97.40;91490.47;5043655;28;20041;-74
2022/01/24 07:33:16;;;;;;;29.33;13.10;;;;;;;-6.51;96.91;91488.06;5050223;28;20039;-69
2022/01/24 07:35:44;;;;;;;26.02;14.57;;;;;;;-6.78;95.26;91497.50;5047990;28;20025;-72
2022/01/24 07:38:10;;;;;;;21.17;12.10;;;;;;;-6.44;93.00;91494.09;5047964;28;20140;-72
2022/01/24 07:40:42;;;;;;;36.40;16.98;;;;;;;-6.14;89.11;91493.78;5035776;28;20051;-70
2022/01/24 07:43:11;;;;;;;37.00;19.50;;;;;;;-6.49;90.72;91499.03;5033507;28;20018;-76
2022/01/24 07:45:38;;;;;;;23.55;11.93;;;;;;;-6.39;92.08;91496.09;5047799;28;20082;-73
2022/01/24 07:48:04;;;;;;;17.73;9.15;;;;;;;-6.67;92.20;91514.28;5044627;28;20514;-77
2022/01/24 07:50:31;;;;;;;23.77;12.10;;;;;;;-6.48;94.82;91508.38;5031136;28;20538;-72
2022/01/24 07:52:59;;;;;;;23.20;11.18;;;;;;;-6.04;91.87;91497.56;5048956;28;20038;-70
2022/01/24 07:55:25;;;;;;;22.85;11.82;;;;;;;-5.82;88.14;91518.94;5039129;28;20404;-69
2022/01/24 07:57:51;;;;;;;40.63;19.77;;;;;;;-6.06;87.97;91516.91;5043994;28;20414;-75
2022/01/24 08:00:17;;;;;;;25.98;12.15;;;;;;;-6.39;88.10;91529.72;5044033;28;20041;-75
2022/01/24 08:02:42;;;;;;;53.95;25.88;;;;;;;-6.01;88.25;91524.06;5033945;28;20036;-69
2022/01/24 08:05:09;;;;;;;62.70;23.33;;;;;;;-5.69;86.08;91528.50;5030543;28;20033;-71
2022/01/24 08:07:37;;;;;;;118.85;41.67;;;;;;;-5.72;85.64;91521.91;5035799;28;20126;-73
2022/01/24 08:10:04;;;;;;;86.68;35.63;;;;;;;-5.32;85.22;91527.16;5049528;28;20407;-71
2022/01/24 08:12:31;;;;;;;73.63;27.25;;;;;;;-5.18;83.98;91531.34;5050205;28;20166;-72
2022/01/24 08:15:00;;;;;;;51.65;24.60;;;;;;;-5.47;83.64;91529.94;5050524;28;20045;-76
2022/01/24 08:17:26;;;;;;;39.17;20.30;;;;;;;-5.29;82.79;91538.94;5030301;28;20069;-73
2022/01/24 08:19:52;;;;;;;35.20;18.42;;;;;;;-5.34;82.57;91533.53;5034639;28;20080;-74
2022/01/24 08:22:18;;;;;;;36.10;20.58;;;;;;;-5.04;82.14;91533.94;5033029;28;20033;-70
2022/01/24 08:24:47;;;;;;;41.90;20.23;;;;;;;-5.52;82.86;91516.00;5030208;28;20049;-71
2022/01/24 08:27:15;;;;;;;25.83;14.55;;;;;;;-5.95;85.49;91534.47;5042185;28;20499;-73
2022/01/24 08:29:43;;;;;;;28.35;13.88;;;;;;;-5.78;87.06;91530.50;5039864;28;20037;-70
2022/01/24 08:32:09;;;;;;;19.27;10.27;;;;;;;-5.98;89.55;91540.03;5032649;28;20046;-71
2022/01/24 08:34:35;;;;;;;21.42;12.30;;;;;;;-5.44;91.46;91542.50;5030384;28;20088;-71
2022/01/24 08:37:01;;;;;;;20.80;10.13;;;;;;;-5.47;86.77;91536.91;5029927;28;20026;-75
2022/01/24 08:39:26;;;;;;;31.40;14.75;;;;;;;-5.10;83.97;91543.31;5030426;28;20044;-71
2022/01/24 08:44:31;;;;;;;26.15;13.82;;;;;;;-4.82;76.66;91546.50;5050051;28;20072;-71
2022/01/24 08:46:56;;;;;;;21.40;12.02;;;;;;;-4.13;76.76;91533.94;5051890;28;20517;-76
2022/01/24 08:49:23;;;;;;;20.70;10.05;;;;;;;-4.62;75.77;91546.44;5054088;28;20053;-69
2022/01/24 08:51:49;;;;;;;26.77;13.68;;;;;;;-4.29;74.93;91561.16;5047600;28;20050;-68
2022/01/24 08:54:14;;;;;;;28.27;11.20;;;;;;;-4.34;72.72;91553.97;5053774;28;20120;-68
2022/01/24 08:56:40;;;;;;;55.95;31.75;;;;;;;-3.85;72.64;91552.59;5037294;28;20068;-62
2022/01/24 08:59:06;;;;;;;37.17;20.98;;;;;;;-3.90;71.97;91549.03;5033369;28;20099;-66
2022/01/24 09:01:33;;;;;;;28.67;15.27;;;;;;;-4.37;72.13;91553.59;5041212;28;20490;-65
2022/01/24 09:03:59;;;;;;;33.65;18.15;;;;;;;-3.94;73.44;91554.66;5040786;28;20026;-67
2022/01/24 09:06:25;;;;;;;31.48;17.88;;;;;;;-3.50;71.99;91560.03;5033764;28;20498;-66
2022/01/24 09:08:55;;;;;;;27.48;14.70;;;;;;;-3.58;71.28;91563.69;5041998;28;20072;-66
2022/01/24 09:11:28;;;;;;;22.50;12.68;;;;;;;-4.03;72.78;91560.28;5040249;28;20033;-66
2022/01/24 09:13:54;;;;;;;26.80;16.48;;;;;;;-2.91;71.07;91554.44;5052764;28;20506;-67
2022/01/24 09:16:20;;;;;;;27.00;15.85;;;;;;;-3.77;70.23;91554.19;5053369;28;20071;-66
2022/01/24 09:18:45;;;;;;;22.05;13.45;;;;;;;-3.24;69.87;91553.88;5053403;28;20036;-66
2022/01/24 09:21:11;;;;;;;15.10;8.57;;;;;;;-3.36;69.42;91548.53;5050098;28;20040;-66
2022/01/24 09:23:37;;;;;;;15.23;9.65;;;;;;;-3.58;69.10;91537.69;5048767;28;20526;-66
2022/01/24 09:26:02;;;;;;;14.50;8.93;;;;;;;-3.23;68.68;91548.47;5040188;28;20553;-66
2022/01/24 09:28:28;;;;;;;19.52;9.73;;;;;;;-2.58;66.86;91553.34;5051832;28;20099;-69
2022/01/24 09:30:54;;;;;;;16.50;8.98;;;;;;;-2.05;65.14;91556.25;5053483;28;20041;-69
2022/01/24 09:33:20;;;;;;;14.18;9.90;;;;;;;-1.29;62.52;91549.66;5053409;28;20111;-66
2022/01/24 09:35:45;;;;;;;30.50;15.43;;;;;;;-1.52;60.97;91553.00;5053294;28;20088;-66
2022/01/24 09:38:12;;;;;;;27.95;15.20;;;;;;;-1.42;59.75;91547.22;5053254;28;20514;-68
2022/01/24 09:40:38;;;;;;;28.40;14.90;;;;;;;-1.58;60.65;91544.25;5053519;28;20078;-66
2022/01/24 09:43:05;;;;;;;27.67;15.93;;;;;;;-0.30;58.82;91550.75;5052774;28;20037;-69
2022/01/24 09:45:31;;;;;;;31.88;17.40;;;;;;;0.73;56.26;91534.25;5052881;28;20029;-66
2022/01/24 09:47:57;;;;;;;27.10;13.10;;;;;;;0.41;55.42;91540.97;5053151;28;20068;-64
2022/01/24 09:50:23;;;;;;;50.95;22.75;;;;;;;0.49;55.42;91543.22;5049546;28;20124;-65
2022/01/24 09:52:50;;;;;;;28.20;11.77;;;;;;;0.67;54.89;91535.19;5043108;28;20112;-66
2022/01/24 09:55:18;;;;;;;14.95;7.75;;;;;;;0.12;55.07;91520.00;5031806;28;20041;-67
2022/01/24 09:57:47;;;;;;;16.38;9.15;;;;;;;-0.93;57.64;91541.72;5032220;28;20037;-64
2022/01/24 10:00:19;;;;;;;29.13;16.80;;;;;;;-1.95;59.29;91540.06;5032757;28;20049;-67
2022/01/24 10:02:46;;;;;;;38.08;20.45;;;;;;;-2.66;61.07;91551.03;5031603;28;20510;-63
2022/01/24 10:05:23;;;;;;;48.22;23.35;;;;;;;-3.29;62.67;91554.50;5032853;28;20033;-67
2022/01/24 10:08:00;;;;;;;36.42;19.70;;;;;;;-2.55;60.48;91542.50;5032749;28;20034;-66
2022/01/24 10:10:30;;;;;;;32.92;17.58;;;;;;;-1.24;56.99;91534.16;5032822;28;20060;-66
2022/01/24 10:18:09;;;;;;;28.98;15.80;;;;;;;0.19;51.94;91520.66;5032552;28;20051;-67
2022/01/24 10:20:37;;;;;;;46.35;25.80;;;;;;;-0.14;53.75;91525.75;5032736;28;20517;-67
2022/01/24 10:23:13;;;;;;;19.17;12.07;;;;;;;1.01;52.29;91522.16;5032421;28;20449;-65
2022/01/24 10:25:52;;;;;;;20.95;10.90;;;;;;;2.16;50.71;91520.72;5032486;28;20056;-66
2022/01/24 10:28:34;;;;;;;17.70;10.50;;;;;;;3.98;46.26;91520.94;5032023;28;20041;-68
2022/01/24 10:31:05;;;;;;;38.05;23.55;;;;;;;2.72;47.48;91527.47;5032698;28;20068;-69
2022/01/24 10:33:49;;;;;;;19.85;11.75;;;;;;;4.29;45.50;91521.88;5032614;28;20091;-68
2022/01/24 10:36:34;;;;;;;29.52;15.85;;;;;;;2.07;46.57;91526.41;5031299;28;20419;-69
2022/01/24 10:39:29;;;;;;;54.97;25.40;;;;;;;2.84;45.79;91514.16;5032115;28;20037;-70
2022/01/24 10:44:55;;;;;;;21.00;13.38;;;;;;;-0.64;49.75;91524.34;5037035;28;20525;-71
2022/01/24 10:47:24;;;;;;;33.05;17.55;;;;;;;-1.50;54.03;91524.88;5052120;28;20033;-69
2022/01/24 10:49:51;;;;;;;31.00;18.80;;;;;;;-2.09;53.92;91530.81;5051781;28;20060;-67
2022/01/24 10:52:21;;;;;;;34.13;19.40;;;;;;;-1.84;55.30;91527.09;5052174;28;20143;-68
2022/01/24 10:54:48;;;;;;;34.88;18.98;;;;;;;-2.31;55.60;91533.06;5051609;28;20048;-67
2022/01/24 10:57:26;;;;;;;32.08;18.98;;;;;;;-3.59;58.47;91546.50;5051456;28;20037;-68
2022/01/24 11:00:02;;;;;;;38.53;18.35;;;;;;;-4.71;62.71;91542.50;5051493;28;20491;-68
2022/01/24 11:02:35;;;;;;;31.83;14.95;;;;;;;-5.08;63.92;91541.31;5052116;28;20033;-68
2022/01/24 11:05:15;;;;;;;29.98;13.75;;;;;;;-5.10;64.48;91540.72;5051525;28;20047;-69
2022/01/24 11:07:53;;;;;;;16.65;8.93;;;;;;;-5.33;66.36;91541.13;5051658;28;20041;-66
2022/01/24 11:10:19;;;;;;;20.83;9.65;;;;;;;-4.90;65.19;91538.09;5050976;28;20398;-71
2022/01/24 11:12:44;;;;;;;46.05;22.98;;;;;;;-3.71;65.46;91525.53;5051255;28;20036;-69
2022/01/24 11:15:11;;;;;;;23.17;10.80;;;;;;;-3.00;60.66;91540.06;5051417;28;20116;-70
2022/01/24 11:17:36;;;;;;;14.75;7.65;;;;;;;-4.14;63.74;91537.53;5038745;28;20088;-65
2022/01/24 11:20:03;;;;;;;18.40;11.77;;;;;;;-5.23;66.72;91544.09;5031001;28;20037;-66
2022/01/24 11:22:32;;;;;;;17.30;10.23;;;;;;;-5.86;74.84;91540.22;5031651;28;20498;-67
2022/01/24 11:25:02;;;;;;;15.73;7.95;;;;;;;-6.29;77.36;91537.16;5043331;28;20038;-63
2022/01/24 11:27:29;;;;;;;17.40;8.30;;;;;;;-6.23;80.05;91542.34;5049367;28;20048;-65
2022/01/24 11:29:57;;;;;;;20.30;9.88;;;;;;;-6.78;85.28;91553.63;5050522;28;20033;-64
2022/01/24 11:32:44;;;;;;;14.82;8.02;;;;;;;-6.79;88.51;91546.81;5051232;28;20197;-65
2022/01/24 11:35:10;;;;;;;16.55;9.45;;;;;;;-6.09;89.17;91535.41;5051163;28;20408;-66
2022/01/24 11:37:38;;;;;;;26.10;13.27;;;;;;;-5.84;85.26;91546.84;5051100;28;20067;-65
2022/01/24 11:40:08;;;;;;;40.15;16.55;;;;;;;-5.42;83.59;91540.50;5050928;28;20134;-66
2022/01/24 11:42:35;;;;;;;27.65;14.18;;;;;;;-5.07;78.99;91540.31;5050325;28;20438;-69
2022/01/24 11:45:11;;;;;;;54.65;23.60;;;;;;;-4.50;77.22;91532.84;5050965;28;20036;-65
2022/01/24 11:47:37;;;;;;;23.05;11.75;;;;;;;-4.39;76.68;91534.84;5050939;28;20035;-67
2022/01/24 11:50:26;;;;;;;22.02;12.40;;;;;;;-2.90;70.97;91542.22;5050654;28;20124;-66
2022/01/24 11:52:55;;;;;;;15.18;10.25;;;;;;;-2.53;65.19;91540.47;5050942;28;20044;-67
2022/01/24 11:55:36;;;;;;;17.67;10.07;;;;;;;-1.79;61.74;91536.88;5050305;28;20033;-67
2022/01/24 11:58:06;;;;;;;17.15;9.05;;;;;;;-1.87;59.93;91539.78;5050772;28;20119;-68
2022/01/24 12:00:38;;;;;;;29.25;13.88;;;;;;;-0.92;57.83;91540.69;5050771;28;20102;-66
2022/01/24 12:03:26;;;;;;;28.80;15.02;;;;;;;-2.09;56.44;91547.25;5050702;28;20513;-65
2022/01/24 12:05:57;;;;;;;25.52;13.55;;;;;;;-1.27;56.43;91534.56;5050732;28;20040;-68
2022/01/24 12:08:44;;;;;;;33.05;18.58;;;;;;;-0.41;54.26;91535.88;5050774;28;20210;-68
2022/01/24 12:11:31;;;;;;;22.25;12.85;;;;;;;-2.63;56.97;91535.78;5050711;28;20045;-69
2022/01/24 12:14:11;;;;;;;28.95;15.40;;;;;;;-2.91;58.58;91538.81;5050605;28;20049;-68
2022/01/24 12:16:42;;;;;;;36.17;18.75;;;;;;;-2.54;59.80;91544.09;5050720;28;20037;-68
2022/01/24 12:19:10;;;;;;;33.15;19.33;;;;;;;-3.42;59.89;91539.00;5050644;28;20048;-68
2022/01/24 12:21:40;;;;;;;27.13;15.95;;;;;;;-3.20;60.97;91537.63;5055564;28;20124;-64
2022/01/24 12:24:12;;;;;;;21.67;12.27;;;;;;;-3.18;59.80;91534.81;5057002;28;20502;-65
2022/01/24 12:26:44;;;;;;;17.05;8.02;;;;;;;-3.83;61.32;91539.41;5056907;28;20041;-65
2022/01/24 12:29:19;;;;;;;12.63;7.63;;;;;;;-5.52;65.47;91544.50;5057318;28;20128;-67
2022/01/24 12:31:51;;;;;;;11.68;7.10;;;;;;;-6.26;67.60;91541.94;5057101;28;20044;-69
2022/01/24 12:34:41;;;;;;;13.75;6.28;;;;;;;-6.29;69.34;91542.31;5056242;28;20060;-67
2022/01/24 12:37:21;;;;;;;23.05;13.35;;;;;;;-6.37;70.58;91541.47;5057104;28;20044;-68
2022/01/24 12:39:55;;;;;;;22.88;12.32;;;;;;;-6.27;71.81;91550.69;5056635;28;20064;-68
2022/01/24 12:42:50;;;;;;;15.35;8.02;;;;;;;-6.30;72.55;91556.25;5057000;28;20215;-70
2022/01/24 12:48:14;;;;;;;17.95;8.35;;;;;;;-6.54;72.17;91555.75;5056968;28;20060;-68
2022/01/24 12:50:54;;;;;;;16.98;9.05;;;;;;;-6.76;71.70;91559.41;5037100;28;20111;-68
2022/01/24 12:53:21;;;;;;;19.40;8.77;;;;;;;-6.91;71.97;91558.72;5037057;28;20044;-67
2022/01/24 12:56:04;;;;;;;25.27;12.82;;;;;;;-6.72;72.58;91548.47;5040281;28;20108;-68
2022/01/24 12:58:34;;;;;;;32.38;16.48;;;;;;;-6.49;71.75;91557.75;5036827;28;20302;-68
2022/01/24 13:01:00;;;;;;;33.85;15.38;;;;;;;-6.56;72.50;91562.09;5036936;28;20057;-69
2022/01/24 13:03:25;;;;;;;25.40;11.20;;;;;;;-6.42;73.79;91567.16;5037306;28;20037;-69